createdAt,value
2022-10-05T00:00:01.746Z,8.51
2022-10-05T00:01:36.552Z,8.49
2022-10-05T00:03:11.568Z,8.46
2022-10-05T00:15:21.183Z,8.45
2022-10-05T00:16:52.985Z,8.47
2022-10-05T00:18:24.708Z,8.49
2022-10-05T00:19:56.299Z,8.48
2022-10-05T00:21:28.073Z,8.41
2022-10-05T00:23:01.314Z,8.37
2022-10-05T00:24:32.938Z,8.32
2022-10-05T00:26:11.998Z,8.33
2022-10-05T00:27:43.559Z,8.33
2022-10-05T00:29:18.806Z,8.35
2022-10-05T00:30:50.503Z,8.30
2022-10-05T00:32:37.978Z,8.27
2022-10-05T00:34:24.365Z,8.24
2022-10-05T00:36:13.967Z,8.22
2022-10-05T00:40:01.859Z,8.26
2022-10-05T00:53:06.352Z,8.06
2022-10-05T00:54:42.922Z,8.02
2022-10-05T00:56:14.589Z,7.96
2022-10-05T00:57:53.099Z,7.95
2022-10-05T00:59:24.588Z,7.93
2022-10-05T01:01:18.603Z,7.92
2022-10-05T01:03:08.950Z,7.89
2022-10-05T01:04:43.573Z,7.90
2022-10-05T01:06:33.515Z,7.91
2022-10-05T01:08:07.810Z,7.90
2022-10-05T01:09:42.170Z,7.93
2022-10-05T01:11:19.216Z,7.91
2022-10-05T01:12:50.819Z,7.94
2022-10-05T01:14:24.616Z,7.91
2022-10-05T01:15:59.022Z,7.84
2022-10-05T01:22:45.290Z,7.73
2022-10-05T01:24:37.097Z,7.71
2022-10-05T01:26:27.297Z,7.74
2022-10-05T01:28:08.036Z,7.72
2022-10-05T01:29:41.307Z,7.68
2022-10-05T01:31:15.736Z,7.64
2022-10-05T01:32:50.745Z,7.61
2022-10-05T01:34:22.368Z,7.56
2022-10-05T01:36:06.679Z,7.52
2022-10-05T01:37:54.673Z,7.48
2022-10-05T01:39:35.402Z,7.43
2022-10-05T01:41:13.057Z,7.38
2022-10-05T01:43:03.352Z,7.36
2022-10-05T01:44:42.682Z,7.36
2022-10-05T01:46:23.559Z,7.38
2022-10-05T01:47:58.584Z,7.39
2022-10-05T01:49:30.159Z,7.39
2022-10-05T01:51:01.821Z,7.42
2022-10-05T01:52:37.126Z,7.42
2022-10-05T01:54:11.378Z,7.42
2022-10-05T01:55:49.042Z,7.44
2022-10-05T01:57:39.411Z,7.45
2022-10-05T01:59:17.037Z,7.48
2022-10-05T02:01:24.716Z,7.55
2022-10-05T02:02:57.759Z,7.66
2022-10-05T02:05:01.085Z,7.72
2022-10-05T02:06:30.840Z,7.73
2022-10-05T02:08:04.190Z,7.72
2022-10-05T02:09:38.340Z,7.74
2022-10-05T02:11:11.693Z,7.72
2022-10-05T02:12:43.289Z,7.70
2022-10-05T02:14:18.591Z,7.71
2022-10-05T02:15:53.551Z,7.69
2022-10-05T02:17:33.802Z,7.67
2022-10-05T02:19:09.423Z,7.67
2022-10-05T02:20:43.917Z,7.67
2022-10-05T02:22:20.766Z,7.69
2022-10-05T02:23:53.501Z,7.70
2022-10-05T02:25:31.695Z,7.66
2022-10-05T02:27:03.757Z,7.63
2022-10-05T02:28:40.017Z,7.60
2022-10-05T02:30:16.684Z,7.57
2022-10-05T02:31:53.348Z,7.53
2022-10-05T02:33:31.850Z,7.50
2022-10-05T02:35:04.844Z,7.48
2022-10-05T02:36:36.442Z,7.45
2022-10-05T02:38:10.763Z,7.40
2022-10-05T02:39:42.519Z,7.37
2022-10-05T02:41:32.784Z,7.32
2022-10-05T02:43:07.178Z,7.22
2022-10-05T02:44:58.693Z,7.16
2022-10-05T02:46:41.267Z,7.08
2022-10-05T02:48:20.025Z,7.06
2022-10-05T02:49:58.876Z,7.09
2022-10-05T02:51:42.593Z,7.10
2022-10-05T02:53:29.569Z,7.07
2022-10-05T02:55:21.898Z,7.04
2022-10-05T02:56:53.473Z,6.98
2022-10-05T02:58:25.787Z,6.92
2022-10-05T02:59:57.596Z,6.88
2022-10-05T03:01:43.398Z,6.88
2022-10-05T03:03:15.219Z,6.87
2022-10-05T03:04:59.804Z,6.85
2022-10-05T03:06:35.615Z,6.85
2022-10-05T03:08:09.691Z,6.83
2022-10-05T03:09:48.863Z,6.83
2022-10-05T03:11:28.475Z,6.83
2022-10-05T03:13:03.225Z,6.86
2022-10-05T03:14:46.676Z,6.88
2022-10-05T03:16:21.969Z,6.88
2022-10-05T03:18:05.596Z,6.86
2022-10-05T03:19:37.210Z,6.83
2022-10-05T03:21:09.181Z,6.83
2022-10-05T03:23:01.035Z,6.77
2022-10-05T03:24:38.778Z,6.74
2022-10-05T03:26:28.931Z,6.68
2022-10-05T03:28:19.306Z,6.66
2022-10-05T03:29:57.453Z,6.61
2022-10-05T03:31:41.300Z,6.60
2022-10-05T03:33:34.539Z,6.61
2022-10-05T03:35:18.829Z,6.61
2022-10-05T03:36:53.378Z,6.63
2022-10-05T03:38:33.645Z,6.62
2022-10-05T03:40:12.541Z,6.63
2022-10-05T03:41:57.452Z,6.60
2022-10-05T03:43:32.075Z,6.61
2022-10-05T03:45:12.052Z,6.63
2022-10-05T03:48:33.997Z,6.69
2022-10-05T03:50:27.477Z,6.70
2022-10-05T03:52:21.527Z,6.67
2022-10-05T03:53:53.864Z,6.67
2022-10-05T03:55:55.537Z,6.66
2022-10-05T03:57:27.699Z,6.72
2022-10-05T03:59:09.793Z,6.77
2022-10-05T04:00:46.423Z,6.82
2022-10-05T04:02:33.678Z,6.86
2022-10-05T04:04:05.731Z,6.91
2022-10-05T04:05:41.391Z,6.92
2022-10-05T04:07:15.705Z,6.93
2022-10-05T04:09:01.256Z,6.92
2022-10-05T04:10:32.778Z,6.96
2022-10-05T04:12:20.044Z,7.01
2022-10-05T04:13:54.705Z,7.02
2022-10-05T04:15:32.487Z,6.99
2022-10-05T04:17:17.447Z,6.97
2022-10-05T04:18:50.768Z,6.97
2022-10-05T04:20:29.868Z,6.91
2022-10-05T04:22:06.195Z,6.87
2022-10-05T04:23:49.963Z,6.83
2022-10-05T04:25:41.472Z,6.81
2022-10-05T04:27:16.100Z,6.80
2022-10-05T04:28:59.222Z,6.77
2022-10-05T04:30:33.387Z,6.72
2022-10-05T04:32:14.414Z,6.68
2022-10-05T04:33:49.632Z,6.65
2022-10-05T04:35:42.059Z,6.64
2022-10-05T04:37:22.103Z,6.60
2022-10-05T04:38:56.475Z,6.56
2022-10-05T04:40:39.895Z,6.53
2022-10-05T04:42:20.538Z,6.54
2022-10-05T04:43:57.366Z,6.53
2022-10-05T04:45:49.248Z,6.51
2022-10-05T04:47:29.293Z,6.48
2022-10-05T04:49:09.293Z,6.51
2022-10-05T04:51:04.797Z,6.50
2022-10-05T04:53:16.184Z,6.48
2022-10-05T04:54:59.580Z,6.50
2022-10-05T04:58:31.312Z,6.53
2022-10-05T05:00:06.241Z,6.61
2022-10-05T05:01:56.298Z,6.68
2022-10-05T05:03:35.053Z,6.73
2022-10-05T05:05:24.987Z,6.80
2022-10-05T05:09:06.224Z,6.93
2022-10-05T05:10:46.894Z,6.80
2022-10-05T05:12:26.675Z,6.72
2022-10-05T05:14:01.553Z,6.70
2022-10-05T05:15:39.814Z,6.77
2022-10-05T05:17:30.088Z,6.79
2022-10-05T05:19:07.412Z,6.87
2022-10-05T05:20:57.884Z,6.91
2022-10-05T05:22:47.463Z,6.97
2022-10-05T05:24:21.686Z,7.02
2022-10-05T05:26:11.850Z,7.00
2022-10-05T05:27:46.138Z,6.82
2022-10-05T05:29:19.104Z,6.77
2022-10-05T05:31:09.671Z,6.69
2022-10-05T05:32:41.263Z,6.54
2022-10-05T05:34:31.683Z,6.42
2022-10-05T05:36:06.141Z,6.35
2022-10-05T05:37:49.701Z,6.33
2022-10-05T05:39:23.249Z,6.32
2022-10-05T05:41:07.410Z,6.38
2022-10-05T05:42:41.898Z,6.45
2022-10-05T05:44:16.969Z,6.53
2022-10-05T05:45:51.179Z,6.56
2022-10-05T05:47:23.174Z,6.57
2022-10-05T05:48:56.532Z,6.56
2022-10-05T05:50:35.000Z,6.57
2022-10-05T05:52:20.947Z,6.61
2022-10-05T05:54:10.106Z,6.65
2022-10-05T05:55:46.449Z,6.72
2022-10-05T05:57:18.192Z,6.78
2022-10-05T05:59:01.742Z,6.86
2022-10-05T06:00:38.345Z,7.00
2022-10-05T06:02:11.349Z,7.09
2022-10-05T06:03:47.457Z,7.23
2022-10-05T06:05:18.959Z,7.37
2022-10-05T06:06:51.485Z,7.48
2022-10-05T06:08:41.763Z,7.63
2022-10-05T06:10:26.668Z,7.81
2022-10-05T06:12:14.923Z,7.98
2022-10-05T06:13:46.460Z,8.07
2022-10-05T06:15:35.332Z,8.18
2022-10-05T06:17:11.028Z,8.33
2022-10-05T06:18:43.891Z,8.53
2022-10-05T06:20:28.816Z,8.74
2022-10-05T06:22:07.885Z,9.01
2022-10-05T06:24:02.443Z,9.25
2022-10-05T06:25:52.745Z,9.21
2022-10-05T06:27:33.981Z,9.23
2022-10-05T06:29:06.006Z,9.17
2022-10-05T06:30:46.634Z,9.07
2022-10-05T06:32:21.319Z,8.94
2022-10-05T06:33:54.313Z,8.87
2022-10-05T06:35:44.502Z,8.73
2022-10-05T06:37:21.085Z,8.75
2022-10-05T06:39:01.628Z,8.69
2022-10-05T06:40:53.285Z,8.70
2022-10-05T06:42:25.408Z,8.71
2022-10-05T06:44:06.310Z,8.79
2022-10-05T06:46:10.610Z,8.82
2022-10-05T06:47:54.305Z,8.92
2022-10-05T06:49:29.700Z,9.14
2022-10-05T06:51:04.740Z,9.34
2022-10-05T06:52:40.211Z,9.52
2022-10-05T06:54:14.850Z,9.60
2022-10-05T06:55:49.662Z,9.62
2022-10-05T06:57:39.601Z,9.63
2022-10-05T06:59:14.608Z,9.66
2022-10-05T07:00:55.479Z,9.59
2022-10-05T07:02:34.064Z,9.46
2022-10-05T07:04:30.448Z,9.40
2022-10-05T07:06:13.271Z,9.58
2022-10-05T07:07:50.741Z,9.73
2022-10-05T07:09:34.362Z,9.90
2022-10-05T07:11:45.100Z,9.93
2022-10-05T07:13:33.166Z,10.03
2022-10-05T07:15:23.857Z,10.14
2022-10-05T07:16:58.469Z,10.26
2022-10-05T07:18:48.780Z,10.35
2022-10-05T07:20:23.259Z,10.48
2022-10-05T07:23:52.884Z,10.38
2022-10-05T07:25:37.782Z,10.31
2022-10-05T07:27:19.615Z,10.34
2022-10-05T07:28:53.563Z,10.32
2022-10-05T07:30:25.123Z,10.28
2022-10-05T07:32:03.261Z,10.39
2022-10-05T07:33:44.746Z,10.46
2022-10-05T07:35:41.032Z,10.40
2022-10-05T07:37:31.695Z,10.50
2022-10-05T07:39:55.215Z,10.64
2022-10-05T07:41:25.287Z,10.79
2022-10-05T07:43:45.351Z,10.85
2022-10-05T07:45:38.555Z,10.85
2022-10-05T07:47:10.967Z,10.83
2022-10-05T07:48:51.548Z,10.99
2022-10-05T07:50:43.380Z,11.14
2022-10-05T07:52:19.818Z,11.26
2022-10-05T07:54:06.943Z,11.42
2022-10-05T07:55:43.441Z,11.56
2022-10-05T07:57:21.241Z,11.69
2022-10-05T07:58:56.251Z,11.83
2022-10-05T08:00:37.907Z,11.98
2022-10-05T08:02:28.665Z,12.04
2022-10-05T08:04:09.574Z,12.18
2022-10-05T08:05:41.617Z,12.31
2022-10-05T08:07:14.368Z,12.39
2022-10-05T08:08:51.186Z,12.48
2022-10-05T08:10:27.974Z,12.57
2022-10-05T08:12:03.883Z,12.80
2022-10-05T08:13:38.768Z,12.88
2022-10-05T08:15:19.566Z,13.10
2022-10-05T08:16:52.754Z,13.33
2022-10-05T08:18:26.696Z,13.45
2022-10-05T08:20:05.134Z,13.39
2022-10-05T08:21:39.078Z,13.42
2022-10-05T08:23:16.505Z,13.52
2022-10-05T08:24:48.361Z,13.72
2022-10-05T08:26:29.124Z,13.96
2022-10-05T08:28:06.607Z,14.28
2022-10-05T08:29:40.351Z,14.50
2022-10-05T08:31:35.418Z,14.75
2022-10-05T08:33:11.250Z,15.04
2022-10-05T08:34:46.754Z,15.02
2022-10-05T08:36:19.527Z,15.09
2022-10-05T08:37:51.504Z,15.23
2022-10-05T08:39:24.435Z,15.34
2022-10-05T08:41:03.847Z,15.43
2022-10-05T08:42:54.187Z,15.51
2022-10-05T08:44:32.088Z,15.53
2022-10-05T08:46:13.633Z,15.73
2022-10-05T08:47:47.391Z,15.91
2022-10-05T08:49:39.426Z,16.11
2022-10-05T08:51:23.478Z,16.33
2022-10-05T08:53:12.521Z,16.53
2022-10-05T08:55:03.184Z,16.72
2022-10-05T08:56:48.878Z,16.82
2022-10-05T08:58:27.109Z,16.85
2022-10-05T08:59:58.681Z,16.80
2022-10-05T09:01:49.660Z,16.86
2022-10-05T09:03:21.634Z,17.00
2022-10-05T09:05:12.196Z,17.14
2022-10-05T09:07:02.361Z,17.26
2022-10-05T09:08:36.699Z,17.31
2022-10-05T09:10:18.455Z,17.41
2022-10-05T09:11:56.070Z,17.52
2022-10-05T09:13:37.148Z,17.67
2022-10-05T09:15:38.056Z,17.84
2022-10-05T09:17:18.799Z,17.94
2022-10-05T09:19:02.673Z,17.93
2022-10-05T09:20:49.188Z,17.94
2022-10-05T09:22:24.454Z,18.01
2022-10-05T09:24:16.855Z,18.08
2022-10-05T09:25:55.368Z,18.04
2022-10-05T09:27:30.893Z,18.07
2022-10-05T09:29:20.801Z,18.18
2022-10-05T09:31:01.197Z,18.33
2022-10-05T09:32:33.063Z,18.52
2022-10-05T09:34:23.614Z,18.56
2022-10-05T09:36:04.728Z,18.59
2022-10-05T09:37:41.400Z,18.58
2022-10-05T09:39:22.064Z,18.73
2022-10-05T09:41:12.674Z,18.87
2022-10-05T09:42:44.568Z,19.04
2022-10-05T09:44:40.562Z,19.15
2022-10-05T09:46:31.284Z,19.26
2022-10-05T09:48:17.786Z,19.40
2022-10-05T09:49:57.705Z,19.51
2022-10-05T09:51:32.630Z,19.69
2022-10-05T09:53:05.205Z,19.75
2022-10-05T09:54:57.068Z,19.82
2022-10-05T09:56:34.785Z,19.97
2022-10-05T09:58:28.574Z,20.10
2022-10-05T10:01:44.204Z,20.29
2022-10-05T10:03:35.179Z,20.36
2022-10-05T10:05:06.802Z,20.49
2022-10-05T10:06:44.717Z,20.57
2022-10-05T10:08:25.496Z,20.65
2022-10-05T10:10:12.895Z,20.68
2022-10-05T10:11:45.030Z,20.72
2022-10-05T10:13:31.650Z,20.88
2022-10-05T10:15:15.883Z,21.04
2022-10-05T10:17:07.011Z,21.24
2022-10-05T10:18:53.689Z,21.44
2022-10-05T10:20:34.554Z,21.48
2022-10-05T10:22:10.295Z,21.48
2022-10-05T10:23:44.777Z,21.54
2022-10-05T10:25:23.414Z,21.59
2022-10-05T10:27:00.558Z,21.72
2022-10-05T10:28:35.006Z,21.84
2022-10-05T10:30:09.975Z,22.01
2022-10-05T10:31:50.999Z,22.17
2022-10-05T10:33:25.647Z,22.33
2022-10-05T10:35:01.535Z,22.48
2022-10-05T10:36:34.369Z,22.55
2022-10-05T10:38:06.216Z,22.57
2022-10-05T10:40:01.233Z,22.61
2022-10-05T10:41:52.533Z,22.65
2022-10-05T10:43:24.683Z,22.72
2022-10-05T10:45:02.885Z,22.73
2022-10-05T10:46:53.762Z,22.74
2022-10-05T10:48:28.681Z,22.73
2022-10-05T10:50:00.937Z,22.74
2022-10-05T10:51:35.981Z,22.81
2022-10-05T10:53:26.627Z,22.66
2022-10-05T10:55:09.254Z,22.57
2022-10-05T10:56:59.669Z,22.59
2022-10-05T10:58:50.324Z,22.66
2022-10-05T11:00:22.646Z,22.73
2022-10-05T11:02:12.940Z,22.57
2022-10-05T11:03:47.990Z,22.57
2022-10-05T11:05:37.882Z,22.65
2022-10-05T11:07:12.734Z,22.77
2022-10-05T11:08:48.486Z,22.93
2022-10-05T11:10:29.044Z,23.08
2022-10-05T11:12:01.509Z,23.15
2022-10-05T11:13:52.672Z,23.30
2022-10-05T11:15:44.603Z,23.56
2022-10-05T11:17:16.943Z,23.66
2022-10-05T11:19:07.128Z,23.65
2022-10-05T11:20:57.320Z,23.69
2022-10-05T11:22:34.844Z,23.70
2022-10-05T11:24:25.372Z,23.80
2022-10-05T11:26:03.082Z,23.82
2022-10-05T11:27:40.896Z,23.93
2022-10-05T11:29:18.523Z,24.03
2022-10-05T11:31:08.613Z,24.14
2022-10-05T11:32:58.643Z,24.32
2022-10-05T11:34:30.419Z,24.45
2022-10-05T11:36:14.622Z,24.55
2022-10-05T11:37:49.526Z,24.64
2022-10-05T11:39:39.700Z,24.63
2022-10-05T11:41:33.221Z,24.68
2022-10-05T11:43:15.761Z,24.71
2022-10-05T11:45:12.051Z,24.73
2022-10-05T11:46:46.235Z,24.63
2022-10-05T11:48:24.630Z,24.51
2022-10-05T11:50:15.108Z,24.48
2022-10-05T11:51:46.909Z,24.41
2022-10-05T11:53:21.744Z,24.31
2022-10-05T11:55:16.137Z,24.35
2022-10-05T11:56:57.089Z,24.24
2022-10-05T11:58:30.223Z,23.96
2022-10-05T12:00:09.137Z,23.66
2022-10-05T12:01:46.820Z,23.57
2022-10-05T12:03:37.531Z,23.57
2022-10-05T12:05:10.924Z,23.75
2022-10-05T12:06:52.070Z,23.89
2022-10-05T12:08:26.742Z,24.03
2022-10-05T12:10:17.274Z,24.15
2022-10-05T12:11:57.942Z,24.32
2022-10-05T12:13:38.153Z,24.48
2022-10-05T12:15:21.354Z,24.70
2022-10-05T12:16:59.366Z,24.82
2022-10-05T12:18:31.620Z,24.65
2022-10-05T12:20:09.195Z,24.56
2022-10-05T12:21:40.935Z,24.52
2022-10-05T12:23:18.867Z,24.51
2022-10-05T12:25:01.864Z,24.49
2022-10-05T12:26:37.632Z,24.51
2022-10-05T12:28:21.290Z,24.52
2022-10-05T12:29:56.919Z,24.58
2022-10-05T12:31:31.431Z,24.64
2022-10-05T12:33:03.113Z,24.72
2022-10-05T12:34:40.876Z,24.70
2022-10-05T12:36:14.864Z,24.74
2022-10-05T12:37:52.455Z,24.79
2022-10-05T12:39:47.234Z,24.78
2022-10-05T12:41:36.695Z,24.91
2022-10-05T12:43:24.298Z,24.99
2022-10-05T12:45:16.576Z,24.99
2022-10-05T12:46:48.816Z,24.99
2022-10-05T12:48:32.632Z,25.08
2022-10-05T12:50:10.486Z,25.19
2022-10-05T12:51:42.719Z,25.23
2022-10-05T12:53:32.824Z,25.24
2022-10-05T12:55:06.224Z,25.18
2022-10-05T12:56:45.160Z,25.10
2022-10-05T12:58:35.511Z,24.84
2022-10-05T13:00:11.278Z,24.64
2022-10-05T13:01:48.940Z,24.61
2022-10-05T13:03:25.612Z,24.65
2022-10-05T13:05:04.780Z,24.68
2022-10-05T13:06:45.330Z,24.76
2022-10-05T13:08:21.729Z,24.81
2022-10-05T13:10:11.841Z,24.87
2022-10-05T13:11:48.150Z,24.90
2022-10-05T13:13:19.720Z,24.90
2022-10-05T13:15:00.756Z,24.93
2022-10-05T13:16:32.421Z,24.98
2022-10-05T13:18:22.837Z,24.99
2022-10-05T13:19:57.181Z,24.87
2022-10-05T13:21:28.743Z,24.79
2022-10-05T13:23:10.063Z,24.76
2022-10-05T13:24:45.584Z,24.80
2022-10-05T13:26:18.219Z,24.83
2022-10-05T13:27:52.935Z,24.86
2022-10-05T13:29:44.959Z,24.84
2022-10-05T13:31:27.930Z,24.75
2022-10-05T13:33:21.211Z,24.62
2022-10-05T13:35:11.425Z,24.41
2022-10-05T13:36:55.411Z,24.23
2022-10-05T13:38:39.403Z,24.22
2022-10-05T13:40:26.444Z,24.18
2022-10-05T13:42:04.075Z,24.10
2022-10-05T13:43:57.112Z,24.09
2022-10-05T13:45:31.620Z,24.08
2022-10-05T13:47:21.972Z,24.10
2022-10-05T13:49:12.729Z,24.11
2022-10-05T13:51:02.321Z,24.02
2022-10-05T13:52:40.097Z,23.99
2022-10-05T13:54:15.338Z,23.95
2022-10-05T13:55:47.390Z,23.98
2022-10-05T13:57:21.805Z,23.93
2022-10-05T13:59:05.505Z,23.85
2022-10-05T14:00:42.288Z,23.76
2022-10-05T14:02:36.482Z,23.75
2022-10-05T14:04:26.772Z,23.76
2022-10-05T14:05:59.354Z,23.72
2022-10-05T14:07:32.311Z,23.65
2022-10-05T14:09:04.116Z,23.57
2022-10-05T14:10:39.333Z,23.46
2022-10-05T14:12:14.504Z,23.36
2022-10-05T14:13:47.017Z,23.29
2022-10-05T14:15:32.459Z,23.24
2022-10-05T14:17:11.996Z,23.13
2022-10-05T14:18:56.957Z,23.00
2022-10-05T14:20:31.343Z,22.76
2022-10-05T14:22:12.820Z,22.57
2022-10-05T14:23:44.440Z,22.42
2022-10-05T14:25:19.930Z,22.33
2022-10-05T14:26:52.662Z,22.25
2022-10-05T14:28:29.656Z,22.22
2022-10-05T14:30:02.078Z,22.17
2022-10-05T14:31:35.257Z,22.08
2022-10-05T14:33:16.770Z,21.96
2022-10-05T14:35:13.066Z,21.82
2022-10-05T14:36:45.038Z,21.70
2022-10-05T14:38:18.007Z,21.64
2022-10-05T14:39:50.258Z,21.55
2022-10-05T14:41:22.094Z,21.45
2022-10-05T14:42:53.854Z,21.42
2022-10-05T14:44:29.678Z,21.33
2022-10-05T14:46:02.793Z,21.19
2022-10-05T14:47:35.976Z,21.13
2022-10-05T14:49:17.928Z,21.06
2022-10-05T14:50:59.574Z,21.00
2022-10-05T14:52:35.235Z,20.93
2022-10-05T14:54:22.037Z,20.90
2022-10-05T14:56:00.817Z,20.81
2022-10-05T14:57:53.147Z,20.74
2022-10-05T14:59:24.687Z,20.64
2022-10-05T15:01:11.331Z,20.57
2022-10-05T15:02:52.724Z,20.51
2022-10-05T15:04:24.440Z,20.43
2022-10-05T15:05:58.991Z,20.38
2022-10-05T15:07:36.248Z,20.36
2022-10-05T15:09:17.082Z,20.33
2022-10-05T15:10:50.352Z,20.31
2022-10-05T15:12:23.440Z,20.25
2022-10-05T15:13:55.767Z,20.20
2022-10-05T15:15:33.313Z,20.12
2022-10-05T15:17:07.248Z,19.99
2022-10-05T15:18:44.795Z,19.94
2022-10-05T15:20:17.647Z,19.89
2022-10-05T15:21:56.138Z,19.89
2022-10-05T15:23:32.648Z,19.83
2022-10-05T15:25:12.696Z,19.79
2022-10-05T15:26:53.606Z,19.70
2022-10-05T15:28:38.184Z,19.60
2022-10-05T15:30:11.940Z,19.52
2022-10-05T15:31:47.351Z,19.49
2022-10-05T15:33:24.962Z,19.45
2022-10-05T15:35:15.267Z,19.38
2022-10-05T15:36:51.993Z,19.31
2022-10-05T15:38:25.861Z,19.25
2022-10-05T15:40:02.908Z,19.14
2022-10-05T15:41:41.138Z,19.10
2022-10-05T15:43:14.312Z,18.98
2022-10-05T15:44:46.600Z,18.92
2022-10-05T15:46:27.633Z,18.87
2022-10-05T15:47:59.854Z,18.81
2022-10-05T15:49:38.658Z,18.79
2022-10-05T15:51:15.539Z,18.71
2022-10-05T15:52:51.218Z,18.57
2022-10-05T15:54:42.343Z,18.49
2022-10-05T15:56:19.842Z,18.40
2022-10-05T15:57:53.580Z,18.35
2022-10-05T15:59:30.333Z,18.27
2022-10-05T16:01:04.948Z,18.17
2022-10-05T16:02:40.553Z,18.09
2022-10-05T16:04:18.600Z,18.06
2022-10-05T16:06:13.076Z,18.00
2022-10-05T16:08:04.874Z,17.91
2022-10-05T16:09:57.259Z,17.83
2022-10-05T16:11:49.189Z,17.72
2022-10-05T16:13:23.358Z,17.67
2022-10-05T16:14:56.758Z,17.63
2022-10-05T16:16:35.135Z,17.65
2022-10-05T16:18:22.049Z,17.60
2022-10-05T16:19:59.991Z,17.53
2022-10-05T16:21:31.598Z,17.44
2022-10-05T16:23:06.510Z,17.37
2022-10-05T16:24:40.842Z,17.37
2022-10-05T16:26:18.759Z,17.34
2022-10-05T16:28:04.383Z,17.28
2022-10-05T16:29:44.141Z,17.24
2022-10-05T16:31:21.871Z,17.19
2022-10-05T16:32:56.653Z,17.10
2022-10-05T16:34:28.140Z,17.07
2022-10-05T16:36:13.039Z,17.05
2022-10-05T16:37:50.581Z,16.99
2022-10-05T16:39:22.703Z,16.96
2022-10-05T16:41:03.762Z,16.90
2022-10-05T16:42:39.666Z,16.84
2022-10-05T16:44:23.693Z,16.75
2022-10-05T16:46:03.673Z,16.62
2022-10-05T16:47:50.466Z,16.57
2022-10-05T16:49:40.727Z,16.52
2022-10-05T16:51:24.295Z,16.38
2022-10-05T16:52:58.570Z,16.32
2022-10-05T16:54:33.012Z,16.27
2022-10-05T16:56:07.796Z,16.20
2022-10-05T16:57:40.455Z,16.13
2022-10-05T16:59:24.110Z,16.04
2022-10-05T17:01:14.390Z,15.93
2022-10-05T17:03:04.383Z,15.85
2022-10-05T17:04:40.966Z,15.75
2022-10-05T17:06:18.922Z,15.68
2022-10-05T17:07:50.522Z,15.58
2022-10-05T17:09:22.060Z,15.51
2022-10-05T17:11:20.248Z,15.38
2022-10-05T17:12:54.980Z,15.26
2022-10-05T17:14:32.310Z,15.14
2022-10-05T17:16:06.900Z,15.08
2022-10-05T17:17:41.664Z,15.03
2022-10-05T17:19:28.803Z,14.98
2022-10-05T17:21:15.335Z,14.86
2022-10-05T17:22:55.413Z,14.80
2022-10-05T17:24:29.928Z,14.74
2022-10-05T17:26:08.773Z,14.67
2022-10-05T17:27:51.209Z,14.64
2022-10-05T17:29:25.301Z,14.58
2022-10-05T17:30:59.162Z,14.57
2022-10-05T17:32:35.561Z,14.57
2022-10-05T17:34:23.053Z,14.58
2022-10-05T17:36:05.522Z,14.57
2022-10-05T17:37:40.688Z,14.57
2022-10-05T17:39:16.061Z,14.57
2022-10-05T17:41:06.741Z,14.55
2022-10-05T17:42:38.812Z,14.56
2022-10-05T17:44:10.660Z,14.56
2022-10-05T17:45:42.320Z,14.57
2022-10-05T17:47:15.678Z,14.59
2022-10-05T17:48:50.361Z,14.57
2022-10-05T17:51:00.048Z,14.58
2022-10-05T17:52:50.161Z,14.63
2022-10-05T17:54:43.761Z,14.68
2022-10-05T17:56:15.530Z,14.74
2022-10-05T17:57:47.232Z,14.79
2022-10-05T17:59:38.872Z,14.81
2022-10-05T18:01:17.470Z,14.83
2022-10-05T18:02:49.296Z,14.84
2022-10-05T18:04:32.889Z,14.85
2022-10-05T18:06:24.525Z,14.80
2022-10-05T18:08:16.582Z,14.71
2022-10-05T18:09:54.196Z,14.70
2022-10-05T18:11:28.787Z,14.71
2022-10-05T18:13:00.455Z,14.73
2022-10-05T18:14:51.140Z,14.73
2022-10-05T18:16:41.971Z,14.71
2022-10-05T18:18:32.316Z,14.69
2022-10-05T18:20:22.514Z,14.67
2022-10-05T18:22:17.286Z,14.65
2022-10-05T18:23:51.907Z,14.60
2022-10-05T18:25:29.748Z,14.57
2022-10-05T18:27:11.895Z,14.52
2022-10-05T18:28:50.249Z,14.52
2022-10-05T18:30:25.650Z,14.52
2022-10-05T18:32:01.738Z,14.55
2022-10-05T18:33:33.842Z,14.56
2022-10-05T18:35:15.973Z,14.56
2022-10-05T18:36:50.164Z,14.53
2022-10-05T18:38:42.841Z,14.50
2022-10-05T18:40:44.098Z,14.49
2022-10-05T18:42:27.365Z,14.46
2022-10-05T18:44:02.359Z,14.40
2022-10-05T18:45:36.937Z,14.37
2022-10-05T18:47:30.637Z,14.31
2022-10-05T18:49:20.741Z,14.25
2022-10-05T18:50:54.079Z,14.17
2022-10-05T18:55:10.982Z,14.09
2022-10-05T18:56:44.032Z,14.11
2022-10-05T18:58:30.895Z,14.10
2022-10-05T19:00:04.497Z,14.09
2022-10-05T19:01:43.758Z,14.03
2022-10-05T19:03:34.476Z,13.98
2022-10-05T19:05:46.518Z,13.92
2022-10-05T19:07:20.828Z,13.85
2022-10-05T19:08:52.689Z,13.78
2022-10-05T19:10:43.315Z,13.79
2022-10-05T19:12:36.002Z,13.71
2022-10-05T19:14:10.934Z,13.52
2022-10-05T19:16:01.452Z,13.42
2022-10-05T19:17:51.665Z,13.29
2022-10-05T19:19:30.724Z,13.16
2022-10-05T19:21:25.273Z,13.14
2022-10-05T19:23:09.611Z,13.09
2022-10-05T19:24:47.095Z,13.14
2022-10-05T19:26:36.957Z,13.20
2022-10-05T19:28:20.778Z,13.22
2022-10-05T19:30:05.269Z,13.25
2022-10-05T19:31:58.294Z,13.23
2022-10-05T19:33:48.514Z,13.22
2022-10-05T19:35:25.905Z,13.21
2022-10-05T19:37:01.082Z,13.16
2022-10-05T19:38:33.202Z,13.11
2022-10-05T19:40:09.727Z,13.05
2022-10-05T19:41:52.517Z,13.03
2022-10-05T19:43:24.840Z,13.01
2022-10-05T19:44:56.897Z,13.08
2022-10-05T19:46:47.186Z,13.07
2022-10-05T19:48:33.907Z,13.05
2022-10-05T19:50:23.993Z,12.98
2022-10-05T19:51:56.602Z,12.93
2022-10-05T19:53:32.680Z,12.90
2022-10-05T19:55:24.236Z,12.84
2022-10-05T19:56:56.160Z,12.85
2022-10-05T19:58:28.762Z,12.87
2022-10-05T20:00:00.891Z,12.86
2022-10-05T20:01:37.122Z,12.87
2022-10-05T20:03:19.134Z,12.89
2022-10-05T20:04:55.179Z,12.88
2022-10-05T20:06:27.408Z,12.89
2022-10-05T20:07:59.275Z,12.90
2022-10-05T20:09:48.920Z,12.87
2022-10-05T20:11:21.265Z,12.87
2022-10-05T20:12:59.591Z,12.86
2022-10-05T20:14:32.132Z,12.86
2022-10-05T20:16:36.428Z,12.86
2022-10-05T20:18:45.663Z,12.85
2022-10-05T20:20:22.787Z,12.79
2022-10-05T20:22:00.337Z,12.83
2022-10-05T20:23:32.395Z,12.79
2022-10-05T20:25:06.429Z,12.77
2022-10-05T20:27:02.639Z,12.75
2022-10-05T20:28:34.504Z,12.70
2022-10-05T20:30:07.053Z,12.65
2022-10-05T20:31:39.553Z,12.63
2022-10-05T20:33:14.832Z,12.61
2022-10-05T20:34:46.805Z,12.61
2022-10-05T20:36:18.462Z,12.61
2022-10-05T20:37:53.110Z,12.58
2022-10-05T20:39:24.683Z,12.56
2022-10-05T20:40:56.214Z,12.58
2022-10-05T20:42:27.744Z,12.57
2022-10-05T20:43:59.325Z,12.51
2022-10-05T20:45:30.840Z,12.50
2022-10-05T20:47:02.884Z,12.49
2022-10-05T20:48:38.274Z,12.53
2022-10-05T20:50:10.347Z,12.49
2022-10-05T20:51:43.298Z,12.43
2022-10-05T20:53:15.329Z,12.39
2022-10-05T20:54:47.585Z,12.39
2022-10-05T20:56:20.055Z,12.40
2022-10-05T20:57:52.166Z,12.43
2022-10-05T20:59:24.181Z,12.43
2022-10-05T21:01:14.678Z,12.41
2022-10-05T21:02:49.779Z,12.44
2022-10-05T21:04:22.255Z,12.42
2022-10-05T21:05:53.765Z,12.40
2022-10-05T21:07:27.884Z,12.41
2022-10-05T21:08:59.489Z,12.38
2022-10-05T21:10:32.915Z,12.38
2022-10-05T21:12:04.577Z,12.32
2022-10-05T21:13:44.907Z,12.29
2022-10-05T21:15:16.534Z,12.26
2022-10-05T21:16:50.111Z,12.24
2022-10-05T21:18:21.707Z,12.25
2022-10-05T21:19:53.303Z,12.24
2022-10-05T21:21:27.889Z,12.25
2022-10-05T21:22:59.433Z,12.25
2022-10-05T21:24:31.002Z,12.24
2022-10-05T21:26:02.542Z,12.20
2022-10-05T21:27:34.111Z,12.22
2022-10-05T21:29:10.224Z,12.24
2022-10-05T21:30:44.141Z,12.22
2022-10-05T21:32:15.759Z,12.25
2022-10-05T21:33:47.279Z,12.24
2022-10-05T21:35:19.045Z,12.29
2022-10-05T21:36:50.810Z,12.26
2022-10-05T21:38:22.377Z,12.24
2022-10-05T21:39:54.067Z,12.17
2022-10-05T21:41:25.596Z,12.12
2022-10-05T21:42:57.129Z,12.08
2022-10-05T21:44:28.785Z,12.03
2022-10-05T21:46:01.494Z,12.02
2022-10-05T21:47:33.731Z,11.99
2022-10-05T21:49:06.222Z,11.98
2022-10-05T21:50:38.117Z,11.98
2022-10-05T21:52:09.611Z,11.94
2022-10-05T21:53:41.493Z,11.91
2022-10-05T21:55:13.142Z,11.89
2022-10-05T21:56:48.295Z,11.87
2022-10-05T21:58:20.253Z,11.83
2022-10-05T21:59:52.158Z,11.80
2022-10-05T22:01:25.965Z,11.76
2022-10-05T22:02:58.117Z,11.70
2022-10-05T22:04:29.699Z,11.62
2022-10-05T22:06:01.964Z,11.60
2022-10-05T22:07:33.817Z,11.59
2022-10-05T22:09:05.381Z,11.56
2022-10-05T22:10:39.792Z,11.56
2022-10-05T22:12:11.431Z,11.56
2022-10-05T22:13:47.176Z,11.58
2022-10-05T22:15:22.116Z,11.60
2022-10-05T22:16:54.100Z,11.60
2022-10-05T22:18:27.192Z,11.60